Time;durP1;ratioP1;P1;durP2;ratioP2;P2;SDS_P1;SDS_P2;PMS_P1;PMS_P2;Temp;Humidity;BMP_temperature;BMP_pressure;BME280_temperature;BME280_humidity;BME280_pressure;Samples;Min_cycle;Max_cycle;Signal;HPM_P1;HPM_P2
2021/01/08 00:01:09;;;;;;;5.68;2.35;;;4.80;99.90;;;;;;4920761;29;20028;-88
2021/01/08 00:03:35;;;;;;;3.22;1.90;;;4.80;99.90;;;;;;4903238;29;20107;-88
2021/01/08 00:06:01;;;;;;;4.50;2.08;;;4.80;99.90;;;;;;4903810;29;20032;-88
2021/01/08 00:08:29;;;;;;;5.47;2.17;;;4.60;99.90;;;;;;4903627;29;20149;-87
2021/01/08 00:10:55;;;;;;;2.75;1.50;;;4.70;99.90;;;;;;4920413;29;20036;-88
2021/01/08 00:13:20;;;;;;;2.92;1.75;;;4.50;99.90;;;;;;4903171;29;20035;-87
2021/01/08 00:15:46;;;;;;;1.80;1.30;;;4.60;99.90;;;;;;4904584;29;20032;-88
2021/01/08 00:18:14;;;;;;;4.97;1.40;;;4.60;99.90;;;;;;4920213;29;20410;-88
2021/01/08 00:20:40;;;;;;;2.90;1.60;;;4.50;99.90;;;;;;4903670;29;20033;-88
2021/01/08 00:23:06;;;;;;;3.10;1.05;;;4.50;99.90;;;;;;4902596;29;20076;-90
2021/01/08 00:25:34;;;;;;;3.25;1.40;;;4.40;99.90;;;;;;4919545;29;20032;-89
2021/01/08 00:28:00;;;;;;;2.28;1.15;;;4.50;99.90;;;;;;4903581;29;20406;-88
2021/01/08 00:30:26;;;;;;;1.95;1.20;;;4.50;99.90;;;;;;4903099;29;20032;-88
2021/01/08 00:32:52;;;;;;;3.00;1.27;;;4.60;99.90;;;;;;4903073;29;20498;-88
2021/01/08 00:35:18;;;;;;;1.98;1.27;;;4.50;99.90;;;;;;4902948;29;20119;-86
2021/01/08 00:37:43;;;;;;;2.60;1.20;;;4.50;99.90;;;;;;4902931;29;20070;-87
2021/01/08 00:40:09;;;;;;;4.07;1.20;;;4.50;99.90;;;;;;4903130;29;20032;-88
2021/01/08 00:42:36;;;;;;;2.88;1.20;;;4.60;99.90;;;;;;4903561;29;20506;-86
2021/01/08 00:45:04;;;;;;;5.45;1.60;;;4.60;99.90;;;;;;4920477;29;20096;-87
2021/01/08 00:47:29;;;;;;;2.70;1.30;;;4.50;99.90;;;;;;4921425;29;20032;-88
2021/01/08 00:49:55;;;;;;;3.35;1.45;;;4.60;99.90;;;;;;4904856;29;20501;-88
2021/01/08 00:52:21;;;;;;;2.70;1.23;;;4.60;99.90;;;;;;4903127;29;20033;-88
2021/01/08 00:54:54;;;;;;;2.75;1.45;;;4.60;99.90;;;;;;4919715;29;20107;-88
2021/01/08 00:57:20;;;;;;;5.38;1.38;;;4.70;99.90;;;;;;4902703;29;20032;-87
2021/01/08 00:59:45;;;;;;;2.10;1.40;;;4.70;99.90;;;;;;4918565;29;20106;-88
2021/01/08 01:02:13;;;;;;;2.92;1.30;;;4.70;99.90;;;;;;4919287;29;20024;-88
2021/01/08 01:04:38;;;;;;;3.63;1.40;;;4.70;99.90;;;;;;4902961;29;20040;-87
2021/01/08 01:07:04;;;;;;;1.92;1.17;;;4.70;99.90;;;;;;4902106;29;20497;-86
2021/01/08 01:09:31;;;;;;;4.10;2.03;;;4.70;99.90;;;;;;4902511;29;20028;-86
2021/01/08 01:11:57;;;;;;;3.42;1.75;;;4.60;99.90;;;;;;4919249;29;20076;-86
2021/01/08 01:14:22;;;;;;;3.42;1.40;;;4.60;99.90;;;;;;4918885;29;20398;-87
2021/01/08 01:16:48;;;;;;;1.85;1.23;;;4.70;99.90;;;;;;4903184;29;20036;-87
2021/01/08 01:19:14;;;;;;;3.90;1.48;;;4.60;99.90;;;;;;4919724;29;20063;-87
2021/01/08 01:21:39;;;;;;;2.65;1.55;;;4.70;99.90;;;;;;4918509;29;20038;-88
2021/01/08 01:24:08;;;;;;;4.65;1.52;;;4.70;99.90;;;;;;4903145;29;20527;-87
2021/01/08 01:26:33;;;;;;;1.75;1.23;;;4.80;99.90;;;;;;4902427;29;20049;-88
2021/01/08 01:28:59;;;;;;;3.17;1.83;;;4.70;99.90;;;;;;4904935;29;20036;-88
2021/01/08 01:31:25;;;;;;;2.03;1.40;;;4.50;99.90;;;;;;4923319;29;20028;-87
2021/01/08 01:33:50;;;;;;;2.08;1.30;;;4.60;99.90;;;;;;4907809;29;20152;-88
2021/01/08 01:36:17;;;;;;;2.03;1.10;;;4.60;99.90;;;;;;4919426;29;20056;-87
2021/01/08 01:38:42;;;;;;;5.72;1.65;;;4.60;99.90;;;;;;4902159;29;20037;-87
2021/01/08 01:41:08;;;;;;;1.30;1.05;;;4.50;99.90;;;;;;4901962;29;20039;-87
2021/01/08 01:43:34;;;;;;;1.55;1.23;;;4.50;99.90;;;;;;4916911;29;20028;-86
2021/01/08 01:46:01;;;;;;;1.50;0.93;;;4.40;99.90;;;;;;4901808;29;20467;-86
2021/01/08 01:48:27;;;;;;;1.08;0.90;;;4.50;99.90;;;;;;4901354;29;20081;-87
2021/01/08 01:50:53;;;;;;;3.45;1.60;;;4.50;99.90;;;;;;4917055;29;20035;-86
2021/01/08 01:53:19;;;;;;;5.13;1.10;;;4.40;99.90;;;;;;4918386;29;20060;-87
2021/01/08 01:55:47;;;;;;;1.55;1.00;;;4.50;99.90;;;;;;4917265;29;20055;-86
2021/01/08 01:58:13;;;;;;;1.77;1.10;;;4.40;99.90;;;;;;4917053;29;20474;-88
2021/01/08 02:00:38;;;;;;;2.15;1.20;;;4.40;99.90;;;;;;4901265;29;20061;-85
2021/01/08 02:03:19;;;;;;;2.15;0.80;;;4.40;99.90;;;;;;4901534;29;20032;-86
2021/01/08 02:05:48;;;;;;;1.80;1.20;;;4.60;99.90;;;;;;4901193;29;20024;-85
2021/01/08 02:08:26;;;;;;;1.33;1.05;;;4.70;99.90;;;;;;4918152;29;20117;-86
2021/01/08 02:11:05;;;;;;;1.50;1.20;;;4.70;99.90;;;;;;4901182;29;20028;-86
2021/01/08 02:13:49;;;;;;;1.42;1.00;;;4.80;99.90;;;;;;4900815;29;20036;-85
2021/01/08 02:16:16;;;;;;;3.08;1.38;;;4.90;99.90;;;;;;4901184;29;20087;-87
2021/01/08 02:18:43;;;;;;;1.38;1.27;;;5.00;99.90;;;;;;4916981;29;20052;-86
2021/01/08 02:21:15;;;;;;;1.65;1.08;;;5.00;99.90;;;;;;4917259;29;20485;-86
2021/01/08 02:23:57;;;;;;;2.60;1.40;;;5.10;99.90;;;;;;4920066;29;20060;-87
2021/01/08 02:26:25;;;;;;;5.05;1.33;;;5.00;99.90;;;;;;4905081;29;20028;-87
2021/01/08 02:28:51;;;;;;;3.08;1.30;;;5.10;99.90;;;;;;4903007;29;20047;-87
2021/01/08 02:31:18;;;;;;;2.25;1.40;;;5.10;99.90;;;;;;4916771;29;20039;-86
2021/01/08 02:33:44;;;;;;;2.78;1.25;;;5.10;99.90;;;;;;4916856;29;20446;-86
2021/01/08 02:36:11;;;;;;;3.10;1.52;;;5.10;99.90;;;;;;4900576;29;20068;-86
2021/01/08 02:38:37;;;;;;;2.25;1.38;;;5.10;99.90;;;;;;4900076;29;20055;-86
2021/01/08 02:41:06;;;;;;;2.70;1.73;;;5.20;99.90;;;;;;4900482;29;20036;-86
2021/01/08 02:43:34;;;;;;;6.22;2.05;;;5.20;99.90;;;;;;4900414;29;20529;-87
2021/01/08 02:46:00;;;;;;;3.53;1.90;;;5.20;99.90;;;;;;4900193;29;20044;-87
2021/01/08 02:48:26;;;;;;;4.97;2.60;;;5.10;99.90;;;;;;4900715;29;20036;-86
2021/01/08 02:50:52;;;;;;;7.18;2.38;;;5.10;99.90;;;;;;4900162;29;20122;-86
2021/01/08 02:53:21;;;;;;;7.57;2.70;;;5.10;99.90;;;;;;4900614;29;20123;-86
2021/01/08 02:56:11;;;;;;;5.82;2.95;;;5.10;99.90;;;;;;4900527;29;20050;-86
2021/01/08 02:58:39;;;;;;;5.20;3.20;;;5.00;99.90;;;;;;4900407;29;20121;-87
2021/01/08 03:01:07;;;;;;;9.50;3.50;;;5.10;99.90;;;;;;4900227;29;20039;-87
2021/01/08 03:03:33;;;;;;;7.72;3.53;;;5.00;99.90;;;;;;4900439;29;20036;-87
2021/01/08 03:06:00;;;;;;;8.43;3.33;;;5.00;99.90;;;;;;4900264;29;20035;-87
2021/01/08 03:08:30;;;;;;;8.07;3.50;;;5.00;99.90;;;;;;4899832;29;20040;-87
2021/01/08 03:10:57;;;;;;;8.40;3.97;;;5.10;99.90;;;;;;4917295;29;20108;-87
2021/01/08 03:13:24;;;;;;;4.72;3.50;;;5.10;99.90;;;;;;4899989;29;20039;-87
2021/01/08 03:15:50;;;;;;;7.28;3.80;;;5.10;99.90;;;;;;4900050;29;20394;-86
2021/01/08 03:18:16;;;;;;;7.70;4.05;;;5.00;99.90;;;;;;4916485;29;20036;-87
2021/01/08 03:20:41;;;;;;;11.25;4.20;;;5.10;99.90;;;;;;4901050;29;20891;-87
2021/01/08 03:23:08;;;;;;;9.50;3.60;;;5.10;99.90;;;;;;4917941;29;20029;-86
2021/01/08 03:25:34;;;;;;;6.47;3.78;;;5.10;99.90;;;;;;4900205;29;20055;-87
2021/01/08 03:28:00;;;;;;;6.57;3.97;;;5.00;99.90;;;;;;4917477;29;20088;-87
2021/01/08 03:30:26;;;;;;;5.97;2.95;;;5.00;99.90;;;;;;4900286;29;20028;-87
2021/01/08 03:32:51;;;;;;;9.20;3.50;;;4.90;99.90;;;;;;4899738;29;20032;-87
2021/01/08 03:35:19;;;;;;;3.97;2.75;;;4.70;99.90;;;;;;4900114;29;20487;-87
2021/01/08 03:37:45;;;;;;;4.85;3.15;;;4.80;99.90;;;;;;4915234;29;20064;-88
2021/01/08 03:40:10;;;;;;;6.53;3.10;;;4.80;99.90;;;;;;4900070;29;20107;-87
2021/01/08 03:42:36;;;;;;;10.40;2.78;;;4.90;99.90;;;;;;4900090;29;20032;-88
2021/01/08 03:45:03;;;;;;;6.60;2.65;;;4.90;99.90;;;;;;4900176;29;20059;-87
2021/01/08 03:47:29;;;;;;;5.32;2.95;;;5.00;99.90;;;;;;4899850;29;20045;-88
2021/01/08 03:49:54;;;;;;;3.90;2.03;;;5.10;99.90;;;;;;4900109;29;20191;-87
2021/01/08 03:52:20;;;;;;;2.70;1.80;;;4.90;99.90;;;;;;4899949;29;20032;-88
2021/01/08 03:54:46;;;;;;;2.92;1.83;;;5.00;99.90;;;;;;4916698;29;20024;-87
2021/01/08 03:57:11;;;;;;;3.90;1.73;;;5.00;99.90;;;;;;4884736;29;20135;-88
2021/01/08 03:59:37;;;;;;;4.72;1.90;;;4.90;99.90;;;;;;4903156;29;20040;-88
2021/01/08 04:02:03;;;;;;;2.88;1.90;;;5.00;99.90;;;;;;4903832;29;20072;-88
2021/01/08 04:04:29;;;;;;;5.38;2.00;;;5.00;99.90;;;;;;4903184;29;20096;-87
2021/01/08 04:06:54;;;;;;;5.50;2.03;;;5.00;99.90;;;;;;4903369;29;20390;-87
2021/01/08 04:09:20;;;;;;;3.97;2.05;;;5.00;99.90;;;;;;4903283;29;20036;-86
2021/01/08 04:11:47;;;;;;;5.40;2.05;;;5.10;99.90;;;;;;4918923;29;20039;-87
2021/01/08 04:14:13;;;;;;;6.45;1.92;;;5.10;99.90;;;;;;4918919;29;20490;-87
2021/01/08 04:16:40;;;;;;;3.90;1.73;;;5.00;99.90;;;;;;4919592;29;20065;-88
2021/01/08 04:19:10;;;;;;;4.13;1.98;;;5.00;99.90;;;;;;4903483;29;20036;-87
2021/01/08 04:21:36;;;;;;;4.05;1.65;;;4.90;99.90;;;;;;4919025;29;20111;-87
2021/01/08 04:24:03;;;;;;;4.35;1.60;;;5.00;99.90;;;;;;4904381;29;20076;-87
2021/01/08 04:26:29;;;;;;;5.45;2.33;;;5.00;99.90;;;;;;4919407;29;20056;-87
2021/01/08 04:28:55;;;;;;;6.75;2.10;;;5.00;99.90;;;;;;4919105;29;20410;-87
2021/01/08 04:31:20;;;;;;;2.90;1.95;;;5.10;99.90;;;;;;4903380;29;20028;-88
2021/01/08 04:33:46;;;;;;;4.53;1.60;;;5.10;99.90;;;;;;4902946;29;20036;-87
2021/01/08 04:36:12;;;;;;;7.75;2.28;;;5.20;99.90;;;;;;4902977;29;20406;-88
2021/01/08 04:38:40;;;;;;;5.25;1.95;;;5.10;99.90;;;;;;4903041;29;20032;-88
2021/01/08 04:41:06;;;;;;;2.80;1.90;;;5.20;99.90;;;;;;4906642;29;20028;-87
2021/01/08 04:43:35;;;;;;;3.33;1.85;;;5.20;99.90;;;;;;4911998;29;20013;-92
2021/01/08 04:46:12;;;;;;;2.88;1.60;;;5.10;99.90;;;;;;4918832;29;20032;-88
2021/01/08 04:48:38;;;;;;;4.65;1.70;;;5.20;99.90;;;;;;4927077;29;20052;-86
2021/01/08 04:51:05;;;;;;;3.42;2.20;;;5.00;99.90;;;;;;4926825;29;20032;-86
2021/01/08 04:53:32;;;;;;;4.35;2.10;;;5.00;99.90;;;;;;4909175;29;20123;-86
2021/01/08 04:56:05;;;;;;;3.28;1.92;;;5.10;99.90;;;;;;4908426;29;20032;-86
2021/01/08 04:58:32;;;;;;;2.30;1.50;;;5.00;99.90;;;;;;4911958;29;20039;-86
2021/01/08 05:01:00;;;;;;;4.68;2.08;;;5.20;99.90;;;;;;4914006;29;20035;-85
2021/01/08 05:03:27;;;;;;;2.88;1.98;;;5.10;99.90;;;;;;4939481;29;20032;-84
2021/01/08 05:05:52;;;;;;;3.28;1.95;;;5.20;99.90;;;;;;4922520;29;20447;-84
2021/01/08 05:08:18;;;;;;;5.22;1.80;;;5.20;99.90;;;;;;4923761;29;20032;-83
2021/01/08 05:10:45;;;;;;;4.53;1.75;;;5.20;99.90;;;;;;4916655;29;20051;-86
2021/01/08 05:13:12;;;;;;;4.80;1.83;;;5.30;99.90;;;;;;4913433;29;20029;-86
2021/01/08 05:15:39;;;;;;;1.90;1.70;;;5.20;99.90;;;;;;4929582;29;20119;-87
2021/01/08 05:18:05;;;;;;;3.17;1.70;;;5.10;99.90;;;;;;4918437;29;20064;-88
2021/01/08 05:20:33;;;;;;;3.80;1.70;;;5.10;99.90;;;;;;4940640;29;20057;-87
2021/01/08 05:23:00;;;;;;;2.90;1.83;;;5.20;99.90;;;;;;4941320;29;20016;-86
2021/01/08 05:25:27;;;;;;;4.43;1.90;;;5.30;99.90;;;;;;4925784;29;20027;-86
2021/01/08 05:27:54;;;;;;;4.60;1.92;;;5.10;99.90;;;;;;4924808;29;20039;-87
2021/01/08 05:30:23;;;;;;;3.08;1.55;;;5.00;99.90;;;;;;4925325;29;20072;-86
2021/01/08 05:32:59;;;;;;;2.88;1.80;;;4.90;99.90;;;;;;4925119;29;20047;-87
2021/01/08 05:35:26;;;;;;;3.13;1.58;;;5.00;99.90;;;;;;4924708;29;20016;-86
2021/01/08 05:37:54;;;;;;;2.30;1.70;;;5.10;99.90;;;;;;4909884;29;20147;-87
2021/01/08 05:40:27;;;;;;;3.63;1.98;;;5.10;99.90;;;;;;4904938;29;20024;-86
2021/01/08 05:42:54;;;;;;;2.65;1.83;;;5.10;99.90;;;;;;4904615;29;20078;-87
2021/01/08 05:45:20;;;;;;;4.03;1.77;;;5.00;99.90;;;;;;4919930;29;20032;-86
2021/01/08 05:47:49;;;;;;;2.65;1.60;;;4.90;99.90;;;;;;4919870;29;20104;-86
2021/01/08 05:50:18;;;;;;;3.15;1.95;;;4.80;99.90;;;;;;4903809;29;20091;-86
2021/01/08 05:52:46;;;;;;;4.05;2.00;;;4.90;99.90;;;;;;4902464;29;20032;-86
2021/01/08 05:55:12;;;;;;;2.42;1.92;;;5.00;99.90;;;;;;4918897;29;20111;-86
2021/01/08 05:57:40;;;;;;;4.95;1.95;;;4.90;99.90;;;;;;4901935;29;20094;-87
2021/01/08 06:00:06;;;;;;;2.50;1.75;;;4.80;99.90;;;;;;4902319;29;20055;-86
2021/01/08 06:02:33;;;;;;;5.43;2.20;;;4.90;99.90;;;;;;4917653;29;20039;-86
2021/01/08 06:04:59;;;;;;;3.88;2.00;;;5.00;99.90;;;;;;4920055;29;20028;-87
2021/01/08 06:07:28;;;;;;;3.55;2.03;;;5.10;99.90;;;;;;4909857;29;20123;-86
2021/01/08 06:10:01;;;;;;;4.45;2.08;;;5.00;99.90;;;;;;4904253;29;20100;-87
2021/01/08 06:12:30;;;;;;;3.78;1.90;;;5.10;99.90;;;;;;4901701;29;20028;-86
2021/01/08 06:14:56;;;;;;;6.07;2.08;;;5.10;99.90;;;;;;4901202;29;20032;-87
2021/01/08 06:17:22;;;;;;;3.78;2.17;;;5.10;99.90;;;;;;4917632;29;20571;-87
2021/01/08 06:19:48;;;;;;;4.38;2.50;;;5.20;99.90;;;;;;4901053;29;20475;-87
2021/01/08 06:22:14;;;;;;;5.60;2.20;;;5.20;99.90;;;;;;4901843;29;20043;-87
2021/01/08 06:24:40;;;;;;;5.82;2.63;;;5.20;99.90;;;;;;4917573;29;20119;-87
2021/01/08 06:27:06;;;;;;;5.68;2.38;;;5.20;99.90;;;;;;4901187;29;20043;-87
2021/01/08 06:29:33;;;;;;;3.47;1.90;;;5.10;99.90;;;;;;4900997;29;20127;-87
2021/01/08 06:32:11;;;;;;;4.85;2.10;;;4.90;99.90;;;;;;4901162;29;20043;-87
2021/01/08 06:34:46;;;;;;;2.20;1.60;;;4.90;99.90;;;;;;4918571;29;20020;-86
2021/01/08 06:37:18;;;;;;;2.78;1.30;;;4.80;99.90;;;;;;4916507;29;20060;-86
2021/01/08 06:39:47;;;;;;;4.28;1.88;;;4.60;99.90;;;;;;4900905;29;20036;-87
2021/01/08 06:42:27;;;;;;;3.05;1.60;;;4.60;99.90;;;;;;4900947;29;20043;-86
2021/01/08 06:44:55;;;;;;;3.88;1.80;;;4.60;99.90;;;;;;4900672;29;20514;-86
2021/01/08 06:47:22;;;;;;;5.63;2.47;;;4.40;99.90;;;;;;4916613;29;20047;-87
2021/01/08 06:49:52;;;;;;;4.93;1.90;;;4.40;99.90;;;;;;4900725;29;20065;-87
2021/01/08 06:52:18;;;;;;;6.38;2.28;;;4.40;99.90;;;;;;4900616;29;20043;-87
2021/01/08 06:54:44;;;;;;;4.13;1.88;;;4.60;99.90;;;;;;4918652;29;20047;-88
2021/01/08 06:57:19;;;;;;;4.82;1.92;;;4.70;99.90;;;;;;4901137;29;20042;-87
2021/01/08 06:59:54;;;;;;;4.47;1.92;;;4.80;99.90;;;;;;4901292;29;20119;-88
2021/01/08 07:02:22;;;;;;;6.15;1.95;;;4.80;99.90;;;;;;4927703;29;20036;-87
2021/01/08 07:04:48;;;;;;;3.70;2.08;;;4.90;99.90;;;;;;4915087;29;20032;-90
2021/01/08 07:07:22;;;;;;;4.00;2.03;;;5.00;99.90;;;;;;4909165;29;20122;-86
2021/01/08 07:09:48;;;;;;;6.00;2.42;;;5.00;99.90;;;;;;4918608;29;20024;-87
2021/01/08 07:12:13;;;;;;;5.10;2.28;;;5.00;99.90;;;;;;4902207;29;20056;-88
2021/01/08 07:14:40;;;;;;;6.85;2.10;;;4.80;99.90;;;;;;4900594;29;20062;-88
2021/01/08 07:17:09;;;;;;;2.95;1.77;;;4.80;99.90;;;;;;4900442;29;20517;-86
2021/01/08 07:19:39;;;;;;;2.50;2.03;;;4.70;99.90;;;;;;4900805;29;20020;-87
2021/01/08 07:22:05;;;;;;;3.75;2.35;;;4.60;99.90;;;;;;4917130;29;20160;-87
2021/01/08 07:24:32;;;;;;;3.25;1.95;;;4.60;99.90;;;;;;4900651;29;20068;-87
2021/01/08 07:27:17;;;;;;;5.50;1.98;;;4.60;99.90;;;;;;4900295;29;20479;-87
2021/01/08 07:29:52;;;;;;;3.65;1.70;;;4.50;99.90;;;;;;4900276;29;20035;-86
2021/01/08 07:32:30;;;;;;;2.55;1.77;;;4.50;99.90;;;;;;4918918;29;20035;-87
2021/01/08 07:34:56;;;;;;;8.77;3.67;;;4.40;99.90;;;;;;4903964;29;20126;-87
2021/01/08 07:37:21;;;;;;;2.90;1.63;;;4.50;99.90;;;;;;4903207;29;20056;-87
2021/01/08 07:39:47;;;;;;;3.78;1.88;;;4.50;99.90;;;;;;4918641;29;20173;-87
2021/01/08 07:42:35;;;;;;;3.15;2.05;;;4.40;99.90;;;;;;4906515;29;20095;-86
2021/01/08 07:45:02;;;;;;;5.57;1.98;;;4.50;99.90;;;;;;4920282;29;20092;-87
2021/01/08 07:47:29;;;;;;;4.60;2.25;;;4.50;99.90;;;;;;4904700;29;20036;-87
2021/01/08 07:50:12;;;;;;;5.57;1.90;;;4.40;99.90;;;;;;4903270;29;20035;-87
2021/01/08 07:52:45;;;;;;;3.10;1.88;;;4.40;99.90;;;;;;4906252;29;20035;-86
2021/01/08 07:55:13;;;;;;;6.15;2.30;;;4.40;99.90;;;;;;4918836;29;20479;-87
2021/01/08 07:58:11;;;;;;;6.85;2.47;;;4.50;99.90;;;;;;4902525;29;20040;-87
2021/01/08 08:00:36;;;;;;;5.57;2.17;;;4.40;99.90;;;;;;4879343;29;20064;-88
2021/01/08 08:03:02;;;;;;;4.13;2.15;;;4.50;99.90;;;;;;4902293;29;20529;-88
2021/01/08 08:05:31;;;;;;;5.70;2.03;;;4.60;99.90;;;;;;4902481;29;20088;-87
2021/01/08 08:08:01;;;;;;;4.22;1.95;;;4.60;99.90;;;;;;4903843;29;20044;-87
2021/01/08 08:10:29;;;;;;;3.22;2.13;;;4.60;99.90;;;;;;4902123;29;20032;-87
2021/01/08 08:12:55;;;;;;;2.95;2.17;;;4.60;99.90;;;;;;4918660;29;20028;-88
2021/01/08 08:15:21;;;;;;;2.08;1.70;;;4.60;99.90;;;;;;4902620;29;20390;-88
2021/01/08 08:17:48;;;;;;;4.35;1.88;;;4.50;99.90;;;;;;4903709;29;20491;-88
2021/01/08 08:20:31;;;;;;;6.57;1.70;;;4.40;99.90;;;;;;4902419;29;20060;-87
2021/01/08 08:23:00;;;;;;;3.97;2.22;;;4.50;99.90;;;;;;4902553;29;20108;-87
2021/01/08 08:25:30;;;;;;;3.72;1.90;;;4.40;99.90;;;;;;4903952;29;20114;-88
2021/01/08 08:28:00;;;;;;;4.82;2.00;;;4.40;99.90;;;;;;4902214;29;20417;-88
2021/01/08 08:30:30;;;;;;;3.17;2.22;;;4.20;99.90;;;;;;4904406;29;20040;-85
2021/01/08 08:32:57;;;;;;;3.45;2.05;;;4.30;99.90;;;;;;4920357;29;20043;-88
2021/01/08 08:35:23;;;;;;;6.22;2.58;;;4.40;99.90;;;;;;4902136;29;20032;-87
2021/01/08 08:37:53;;;;;;;5.32;2.50;;;4.40;99.90;;;;;;4865690;29;633760;-87
2021/01/08 08:40:29;;;;;;;3.35;2.08;;;4.40;99.90;;;;;;4904486;29;20059;-87
2021/01/08 08:42:58;;;;;;;5.95;2.72;;;4.50;99.90;;;;;;4903201;29;20043;-91
2021/01/08 08:45:32;;;;;;;3.53;1.80;;;4.50;99.90;;;;;;4920156;29;20294;-88
2021/01/08 08:48:05;;;;;;;3.30;1.88;;;4.50;99.90;;;;;;4906262;29;20038;-87
2021/01/08 08:50:33;;;;;;;3.17;2.07;;;4.40;99.90;;;;;;4920185;29;20040;-87
2021/01/08 08:53:12;;;;;;;6.03;1.83;;;4.40;99.90;;;;;;4918112;29;20080;-88
2021/01/08 08:55:38;;;;;;;4.25;2.10;;;4.50;99.90;;;;;;4922265;29;20390;-88
2021/01/08 08:58:10;;;;;;;6.63;2.67;;;4.40;99.90;;;;;;4922978;29;20352;-88
2021/01/08 09:00:45;;;;;;;4.78;2.17;;;4.10;99.90;;;;;;4907522;29;20039;-88
2021/01/08 09:03:22;;;;;;;8.00;3.50;;;4.20;99.90;;;;;;4902814;29;20032;-87
2021/01/08 09:05:49;;;;;;;5.13;2.70;;;4.20;99.90;;;;;;4902450;29;20028;-87
2021/01/08 09:08:24;;;;;;;6.47;2.97;;;4.30;99.90;;;;;;4902464;29;20484;-87
2021/01/08 09:11:03;;;;;;;4.63;3.05;;;4.40;99.90;;;;;;4902628;29;20032;-87
2021/01/08 09:13:32;;;;;;;7.85;4.63;;;4.30;99.90;;;;;;4905431;29;20061;-87
2021/01/08 09:16:03;;;;;;;6.25;4.07;;;4.30;99.90;;;;;;4921795;29;20498;-87
2021/01/08 09:19:03;;;;;;;7.45;3.83;;;4.40;99.90;;;;;;4922544;29;20046;-88
2021/01/08 09:21:32;;;;;;;5.72;2.78;;;4.40;99.90;;;;;;4904761;29;20028;-87
2021/01/08 09:24:05;;;;;;;4.68;2.70;;;4.40;99.90;;;;;;4905856;29;20431;-87
2021/01/08 09:26:37;;;;;;;6.85;3.17;;;4.30;99.90;;;;;;4909975;29;20032;-87
2021/01/08 09:29:03;;;;;;;4.30;3.00;;;4.40;99.90;;;;;;4917337;29;20397;-87
2021/01/08 09:31:43;;;;;;;6.53;3.65;;;4.30;99.90;;;;;;4916190;29;20033;-87
2021/01/08 09:34:11;;;;;;;5.70;3.47;;;4.40;99.90;;;;;;4906335;29;20036;-88
2021/01/08 09:36:39;;;;;;;4.68;3.17;;;4.40;99.90;;;;;;4903153;29;20048;-87
2021/01/08 09:39:09;;;;;;;5.28;3.08;;;4.30;99.90;;;;;;4904125;29;20033;-87
2021/01/08 09:41:36;;;;;;;3.63;2.85;;;4.40;99.90;;;;;;4903641;29;20058;-87
2021/01/08 09:44:04;;;;;;;5.63;2.90;;;4.40;99.90;;;;;;4903077;29;20036;-88
2021/01/08 09:46:30;;;;;;;8.85;3.00;;;4.30;99.90;;;;;;4918816;29;20474;-87
2021/01/08 09:49:05;;;;;;;4.70;2.40;;;4.40;99.90;;;;;;4903242;29;20032;-88
2021/01/08 09:51:31;;;;;;;5.57;2.70;;;4.50;99.90;;;;;;4920571;29;20032;-87
2021/01/08 09:53:57;;;;;;;3.10;2.40;;;4.50;99.90;;;;;;4901498;29;20410;-88
2021/01/08 09:56:23;;;;;;;4.38;2.55;;;4.50;99.90;;;;;;4885084;29;20108;-87
2021/01/08 09:59:15;;;;;;;4.53;2.92;;;4.50;99.90;;;;;;4918331;29;20116;-87
2021/01/08 10:01:59;;;;;;;6.57;2.92;;;4.40;99.90;;;;;;4902039;29;20034;-87
2021/01/08 10:04:29;;;;;;;5.90;2.80;;;4.40;99.90;;;;;;4901669;29;20052;-87
2021/01/08 10:06:59;;;;;;;4.18;2.72;;;4.50;99.90;;;;;;4901822;29;20064;-87
2021/01/08 10:09:25;;;;;;;5.90;2.28;;;4.50;99.90;;;;;;4901440;29;20085;-87
2021/01/08 10:11:59;;;;;;;4.05;2.80;;;4.40;99.90;;;;;;4901700;29;20036;-88
2021/01/08 10:14:29;;;;;;;5.30;2.58;;;4.50;99.90;;;;;;4901073;29;20028;-88
2021/01/08 10:17:06;;;;;;;4.13;2.92;;;4.40;99.90;;;;;;4901224;29;20063;-88
2021/01/08 10:19:35;;;;;;;5.03;3.38;;;4.40;99.90;;;;;;4902146;29;20067;-91
2021/01/08 10:22:02;;;;;;;5.28;2.63;;;4.40;99.90;;;;;;4903024;29;20028;-89
2021/01/08 10:24:27;;;;;;;2.88;1.92;;;4.50;99.90;;;;;;4901574;29;20034;-88
2021/01/08 10:26:53;;;;;;;2.83;1.80;;;4.50;99.90;;;;;;4902464;29;20036;-87
2021/01/08 10:29:24;;;;;;;3.72;2.33;;;4.50;99.90;;;;;;4902204;29;20116;-87
2021/01/08 10:31:50;;;;;;;3.15;2.45;;;4.40;99.90;;;;;;4901817;29;20051;-87
2021/01/08 10:34:15;;;;;;;3.22;2.00;;;4.40;99.90;;;;;;4901458;29;20085;-87
2021/01/08 10:36:41;;;;;;;3.25;2.10;;;4.30;99.90;;;;;;4900886;29;20055;-86
2021/01/08 10:39:07;;;;;;;5.40;2.40;;;4.50;99.90;;;;;;4901933;29;20542;-87
2021/01/08 10:41:32;;;;;;;3.95;1.92;;;4.50;99.90;;;;;;4901260;29;20108;-87
2021/01/08 10:43:58;;;;;;;2.78;1.95;;;4.60;99.90;;;;;;4901834;29;20478;-86
2021/01/08 10:46:24;;;;;;;4.50;2.60;;;4.60;99.90;;;;;;4902173;29;20066;-86
2021/01/08 10:48:50;;;;;;;3.90;2.00;;;4.60;99.90;;;;;;4886832;29;20032;-87
2021/01/08 10:51:15;;;;;;;3.75;1.92;;;4.70;99.90;;;;;;4886927;29;20036;-86
2021/01/08 10:53:41;;;;;;;3.35;2.17;;;4.50;99.90;;;;;;4917841;29;20037;-87
2021/01/08 10:56:07;;;;;;;4.45;2.55;;;4.50;99.90;;;;;;4902331;29;20059;-88
2021/01/08 10:58:33;;;;;;;2.33;1.67;;;4.50;99.90;;;;;;4901518;29;20051;-87
2021/01/08 11:00:59;;;;;;;5.60;2.25;;;4.40;99.90;;;;;;4901029;29;20066;-88
2021/01/08 11:03:25;;;;;;;3.20;2.17;;;4.50;99.90;;;;;;4900750;29;20028;-87
2021/01/08 11:05:51;;;;;;;2.13;1.92;;;4.60;99.90;;;;;;4886059;29;20442;-87
2021/01/08 11:08:16;;;;;;;6.95;2.58;;;4.50;99.90;;;;;;4884836;29;20522;-87
2021/01/08 11:10:42;;;;;;;4.72;2.80;;;4.60;99.90;;;;;;4885801;29;20042;-87
2021/01/08 11:13:08;;;;;;;5.57;2.60;;;4.50;99.90;;;;;;4917430;29;20032;-87
2021/01/08 11:15:34;;;;;;;4.43;2.28;;;4.60;99.90;;;;;;4885173;29;20072;-87
2021/01/08 11:17:59;;;;;;;4.80;2.60;;;4.60;99.90;;;;;;4900640;29;20139;-87
2021/01/08 11:20:25;;;;;;;5.70;3.38;;;4.70;99.90;;;;;;4884806;29;20522;-86
2021/01/08 11:22:51;;;;;;;6.68;2.70;;;4.70;99.90;;;;;;4917409;29;20026;-87
2021/01/08 11:25:17;;;;;;;6.70;3.08;;;4.60;99.90;;;;;;4916852;29;20061;-89
2021/01/08 11:27:43;;;;;;;5.80;3.58;;;4.60;99.90;;;;;;4900645;29;20032;-88
2021/01/08 11:30:11;;;;;;;5.40;3.42;;;4.50;99.90;;;;;;4900332;29;20034;-87
2021/01/08 11:32:37;;;;;;;5.75;3.20;;;4.60;99.90;;;;;;4900210;29;20054;-88
2021/01/08 11:35:04;;;;;;;4.85;3.67;;;4.60;99.90;;;;;;4900640;29;20479;-87
2021/01/08 11:37:31;;;;;;;5.13;3.75;;;4.60;99.90;;;;;;4884369;29;20060;-86
2021/01/08 11:39:56;;;;;;;8.25;4.78;;;4.60;99.90;;;;;;4916967;29;20024;-87
2021/01/08 11:42:22;;;;;;;5.40;4.43;;;4.60;99.90;;;;;;4884585;29;20108;-87
2021/01/08 11:44:48;;;;;;;4.32;3.60;;;4.60;99.90;;;;;;4900958;29;20107;-87
2021/01/08 11:47:16;;;;;;;5.80;4.25;;;4.60;99.90;;;;;;4884694;29;20064;-86
2021/01/08 11:49:42;;;;;;;7.55;4.18;;;4.80;99.90;;;;;;4918499;29;20032;-85
2021/01/08 11:52:07;;;;;;;6.00;4.95;;;4.80;99.90;;;;;;4904719;29;20084;-87
2021/01/08 11:54:33;;;;;;;4.75;4.15;;;4.90;99.90;;;;;;4930161;29;20104;-86
2021/01/08 11:57:05;;;;;;;3.55;3.25;;;4.80;99.90;;;;;;4901633;29;20043;-87
2021/01/08 11:59:31;;;;;;;4.30;3.35;;;4.80;99.90;;;;;;4900696;29;20039;-87
2021/01/08 12:02:04;;;;;;;5.75;3.50;;;4.90;99.90;;;;;;4916135;29;20032;-87
2021/01/08 12:04:32;;;;;;;6.15;4.53;;;5.10;99.90;;;;;;4900333;29;20501;-87
2021/01/08 12:06:58;;;;;;;3.88;3.47;;;5.20;99.90;;;;;;4900720;29;20054;-87
2021/01/08 12:09:25;;;;;;;24.83;13.48;;;5.10;99.90;;;;;;4902909;29;20095;-86
2021/01/08 12:12:02;;;;;;;12.90;8.18;;;5.20;99.90;;;;;;4901902;29;20458;-86
2021/01/08 12:14:28;;;;;;;7.45;5.70;;;5.10;99.90;;;;;;4902291;29;20036;-87
2021/01/08 12:16:55;;;;;;;6.85;5.22;;;4.90;99.90;;;;;;4925147;29;20047;-84
2021/01/08 12:19:20;;;;;;;7.82;5.45;;;4.80;99.90;;;;;;4907791;29;20028;-89
2021/01/08 12:21:49;;;;;;;6.18;5.35;;;4.80;99.90;;;;;;4922331;29;20102;-86
2021/01/08 12:24:15;;;;;;;5.57;4.97;;;4.80;99.90;;;;;;4904856;29;20032;-85
2021/01/08 12:26:41;;;;;;;5.65;4.55;;;4.90;99.90;;;;;;4904612;29;20538;-86
2021/01/08 12:29:09;;;;;;;5.85;4.53;;;4.90;99.90;;;;;;4921828;29;20024;-86
2021/01/08 12:31:35;;;;;;;4.40;3.95;;;4.80;99.90;;;;;;4905518;29;20062;-87
2021/01/08 12:34:01;;;;;;;5.32;4.50;;;4.90;99.90;;;;;;4919769;29;20036;-88
2021/01/08 12:36:30;;;;;;;5.70;4.82;;;5.10;99.90;;;;;;4925065;29;20091;-88
2021/01/08 12:38:55;;;;;;;6.05;4.30;;;5.10;99.90;;;;;;4925206;29;20038;-88
2021/01/08 12:41:21;;;;;;;4.07;3.50;;;5.00;99.90;;;;;;4937159;29;20106;-87
2021/01/08 12:43:52;;;;;;;3.40;2.72;;;5.10;99.90;;;;;;4950458;29;20035;-87
2021/01/08 12:46:21;;;;;;;4.63;3.00;;;5.10;99.90;;;;;;4946094;29;20028;-87
2021/01/08 12:48:47;;;;;;;4.35;3.88;;;5.00;99.90;;;;;;4929219;29;20382;-88
2021/01/08 12:51:15;;;;;;;3.67;3.38;;;4.90;99.90;;;;;;4925709;29;20043;-87
2021/01/08 12:53:45;;;;;;;4.80;4.18;;;4.90;99.90;;;;;;4942179;29;20484;-87
2021/01/08 12:56:11;;;;;;;6.03;4.50;;;4.90;99.90;;;;;;4926445;29;20036;-89
2021/01/08 12:58:38;;;;;;;10.30;4.78;;;4.80;99.90;;;;;;4941650;29;20032;-89
2021/01/08 13:01:04;;;;;;;4.75;3.80;;;4.80;99.90;;;;;;4924758;29;20122;-87
2021/01/08 13:03:32;;;;;;;7.18;4.57;;;4.80;99.90;;;;;;4908584;29;20062;-88